createdAt,value
2019-02-24T00:01:01.276Z,17.73
2019-02-24T00:03:32.347Z,17.30
2019-02-24T00:06:02.043Z,18.43
2019-02-24T00:08:32.521Z,17.40
2019-02-24T00:11:23.907Z,17.23
2019-02-24T00:13:57.544Z,17.10
2019-02-24T00:16:27.472Z,17.00
2019-02-24T00:18:57.508Z,15.73
2019-02-24T00:21:33.166Z,16.10
2019-02-24T00:23:58.287Z,16.37
2019-02-24T00:26:33.784Z,16.63
2019-02-24T00:29:18.275Z,16.27
2019-02-24T00:31:52.348Z,16.80
2019-02-24T00:34:23.608Z,15.87
2019-02-24T00:37:03.970Z,17.30
2019-02-24T00:39:38.540Z,17.57
2019-02-24T00:42:08.629Z,16.77
2019-02-24T00:44:38.033Z,15.67
2019-02-24T00:47:07.103Z,16.63
2019-02-24T00:49:35.556Z,17.03
2019-02-24T00:52:10.241Z,17.80
2019-02-24T00:54:38.787Z,16.33
2019-02-24T00:57:10.481Z,17.00
2019-02-24T00:59:47.704Z,16.20
2019-02-24T01:02:19.264Z,15.87
2019-02-24T01:04:50.276Z,17.27
2019-02-24T01:07:19.497Z,17.03
2019-02-24T01:09:49.706Z,17.87
2019-02-24T01:12:19.561Z,17.90
2019-02-24T01:14:48.092Z,18.87
2019-02-24T01:17:26.981Z,18.87
2019-02-24T01:19:55.429Z,18.17
2019-02-24T01:22:25.383Z,18.90
2019-02-24T01:24:55.606Z,21.07
2019-02-24T01:27:24.105Z,17.77
2019-02-24T01:29:54.045Z,16.70
2019-02-24T01:32:27.704Z,17.03
2019-02-24T01:35:00.299Z,17.43
2019-02-24T01:37:39.308Z,16.27
2019-02-24T01:40:07.965Z,17.30
2019-02-24T01:42:42.349Z,17.53
2019-02-24T01:45:11.818Z,18.53
2019-02-24T01:47:40.691Z,18.00
2019-02-24T01:50:16.597Z,18.27
2019-02-24T01:52:45.125Z,18.07
2019-02-24T01:55:13.566Z,17.77
2019-02-24T01:57:46.221Z,17.10
2019-02-24T02:00:17.602Z,16.73
2019-02-24T02:02:48.378Z,17.27
2019-02-24T02:05:40.705Z,16.93
2019-02-24T02:08:12.878Z,17.03
2019-02-24T02:10:43.297Z,17.40
2019-02-24T02:13:13.170Z,16.67
2019-02-24T02:15:45.866Z,17.17
2019-02-24T02:18:15.421Z,17.03
2019-02-24T02:20:50.790Z,17.17
2019-02-24T02:23:34.921Z,17.27
2019-02-24T02:26:06.694Z,16.30
2019-02-24T02:28:44.005Z,16.70
2019-02-24T02:31:10.878Z,16.03
2019-02-24T02:33:40.866Z,16.60
2019-02-24T02:36:20.366Z,16.93
2019-02-24T02:38:50.582Z,17.27
2019-02-24T02:41:22.770Z,16.53
2019-02-24T02:43:56.165Z,16.80
2019-02-24T02:46:24.802Z,16.10
2019-02-24T02:48:54.881Z,15.50
2019-02-24T02:51:24.698Z,16.43
2019-02-24T02:53:53.470Z,16.40
2019-02-24T02:59:15.258Z,15.57
2019-02-24T03:01:47.003Z,16.73
2019-02-24T03:04:15.530Z,17.63
2019-02-24T03:09:53.037Z,15.37
2019-02-24T03:12:21.518Z,16.97
2019-02-24T03:14:50.003Z,16.10
2019-02-24T03:17:18.739Z,15.63
2019-02-24T03:19:47.151Z,16.07
2019-02-24T03:22:15.623Z,16.67
2019-02-24T03:24:44.128Z,16.33
2019-02-24T03:27:33.203Z,15.37
2019-02-24T03:30:01.841Z,15.57
2019-02-24T03:32:30.386Z,15.50
2019-02-24T03:35:02.595Z,16.13
2019-02-24T03:37:43.171Z,15.97
2019-02-24T03:40:11.946Z,15.20
2019-02-24T03:42:40.419Z,16.17
2019-02-24T03:45:10.999Z,15.93
2019-02-24T03:47:43.339Z,16.63
2019-02-24T03:50:22.759Z,16.50
2019-02-24T03:52:57.375Z,15.07
2019-02-24T03:55:34.271Z,16.07
2019-02-24T03:58:09.655Z,16.43
2019-02-24T04:00:38.796Z,15.07
2019-02-24T04:03:07.283Z,16.33
2019-02-24T04:05:35.759Z,15.07
2019-02-24T04:08:14.991Z,16.07
2019-02-24T04:10:43.705Z,16.60
2019-02-24T04:13:12.173Z,15.80
2019-02-24T04:15:40.788Z,16.77
2019-02-24T04:18:09.241Z,16.90
2019-02-24T04:20:37.712Z,16.80
2019-02-24T04:23:06.154Z,17.17
2019-02-24T04:25:34.564Z,17.13
2019-02-24T04:28:02.963Z,16.87
2019-02-24T04:30:31.755Z,16.10
2019-02-24T04:33:00.171Z,15.80
2019-02-24T04:35:28.764Z,17.13
2019-02-24T04:37:57.243Z,16.03
2019-02-24T04:40:25.759Z,16.43
2019-02-24T04:42:54.244Z,15.43
2019-02-24T04:45:22.682Z,16.57
2019-02-24T04:47:51.119Z,16.60
2019-02-24T04:50:19.545Z,16.63
2019-02-24T04:52:48.024Z,15.93
2019-02-24T04:55:16.441Z,16.80
2019-02-24T04:57:45.035Z,15.73
2019-02-24T05:00:13.208Z,16.10
2019-02-24T05:02:41.928Z,16.73
2019-02-24T05:05:10.341Z,16.80
2019-02-24T05:07:38.745Z,16.47
2019-02-24T05:10:07.174Z,16.30
2019-02-24T05:12:35.664Z,17.23
2019-02-24T05:15:04.449Z,19.80
2019-02-24T05:17:32.881Z,19.73
2019-02-24T05:20:01.287Z,22.10
2019-02-24T05:22:29.689Z,19.00
2019-02-24T05:24:58.496Z,17.43
2019-02-24T05:27:26.976Z,17.17
2019-02-24T05:29:55.747Z,16.30
2019-02-24T05:32:24.241Z,16.13
2019-02-24T05:34:53.073Z,15.43
2019-02-24T05:37:21.513Z,15.30
2019-02-24T05:39:49.930Z,15.63
2019-02-24T05:42:18.344Z,13.10
2019-02-24T05:44:46.855Z,16.07
2019-02-24T05:47:15.288Z,15.27
2019-02-24T05:49:44.006Z,16.03
2019-02-24T05:52:12.493Z,15.90
2019-02-24T05:54:40.900Z,15.53
2019-02-24T05:57:09.321Z,15.27
2019-02-24T05:59:37.821Z,15.20
2019-02-24T06:02:06.374Z,15.30
2019-02-24T06:04:34.778Z,15.10
2019-02-24T06:07:03.289Z,14.73
2019-02-24T06:09:31.692Z,14.73
2019-02-24T06:12:00.230Z,15.33
2019-02-24T06:14:28.904Z,15.43
2019-02-24T06:16:57.337Z,15.20
2019-02-24T06:19:25.734Z,15.20
2019-02-24T06:21:54.138Z,15.60
2019-02-24T06:24:22.579Z,15.20
2019-02-24T06:26:51.060Z,15.10
2019-02-24T06:29:19.554Z,15.10
2019-02-24T06:31:48.042Z,14.50
2019-02-24T06:34:16.474Z,15.30
2019-02-24T06:36:44.897Z,15.87
2019-02-24T06:39:13.310Z,15.47
2019-02-24T06:41:41.730Z,15.33
2019-02-24T06:44:10.211Z,16.37
2019-02-24T06:46:38.701Z,16.00
2019-02-24T06:49:07.170Z,16.97
2019-02-24T06:51:35.838Z,15.33
2019-02-24T06:54:04.322Z,15.87
2019-02-24T06:56:32.846Z,15.90
2019-02-24T06:59:01.338Z,15.23
2019-02-24T07:01:29.843Z,15.00
2019-02-24T07:03:58.278Z,15.83
2019-02-24T07:06:26.766Z,15.40
2019-02-24T07:08:55.267Z,14.87
2019-02-24T07:11:23.666Z,15.03
2019-02-24T07:13:52.183Z,14.37
2019-02-24T07:16:20.606Z,15.40
2019-02-24T07:18:49.022Z,15.03
2019-02-24T07:21:17.722Z,14.33
2019-02-24T07:23:46.290Z,16.03
2019-02-24T07:26:14.775Z,16.90
2019-02-24T07:28:43.206Z,15.60
2019-02-24T07:31:11.996Z,18.63
2019-02-24T07:33:40.567Z,17.47
2019-02-24T07:36:08.975Z,16.50
2019-02-24T07:38:37.466Z,15.53
2019-02-24T07:41:05.975Z,15.37
2019-02-24T07:43:34.479Z,16.10
2019-02-24T07:46:02.894Z,16.37
2019-02-24T07:48:31.311Z,16.57
2019-02-24T07:50:59.927Z,14.13
2019-02-24T07:53:28.327Z,18.37
2019-02-24T07:55:56.803Z,18.83
2019-02-24T07:58:25.351Z,15.80
2019-02-24T08:00:53.883Z,17.77
2019-02-24T08:03:22.330Z,16.73
2019-02-24T08:05:50.797Z,15.33
2019-02-24T08:08:19.239Z,16.73
2019-02-24T08:10:47.655Z,17.47
2019-02-24T08:13:16.203Z,16.33
2019-02-24T08:15:44.599Z,17.07
2019-02-24T08:18:13.339Z,17.70
2019-02-24T08:20:41.947Z,17.17
2019-02-24T08:23:11.069Z,21.47
2019-02-24T08:25:39.796Z,17.03
2019-02-24T08:28:08.292Z,14.93
2019-02-24T08:30:41.487Z,17.10
2019-02-24T08:33:06.944Z,15.40
2019-02-24T08:35:35.432Z,14.80
2019-02-24T08:38:03.996Z,14.23
2019-02-24T08:40:32.488Z,14.63
2019-02-24T08:43:00.956Z,14.33
2019-02-24T08:45:29.440Z,13.53
2019-02-24T08:47:58.188Z,13.30
2019-02-24T08:50:26.612Z,14.17
2019-02-24T08:52:55.100Z,14.17
2019-02-24T08:55:23.656Z,13.20
2019-02-24T08:57:52.140Z,14.20
2019-02-24T09:00:20.648Z,13.87
2019-02-24T09:02:49.057Z,13.77
2019-02-24T09:05:17.853Z,13.00
2019-02-24T09:07:46.368Z,12.37
2019-02-24T09:10:14.872Z,14.97
2019-02-24T09:12:43.288Z,13.70
2019-02-24T09:15:11.841Z,14.47
2019-02-24T09:17:40.257Z,13.67
2019-02-24T09:20:09.124Z,15.70
2019-02-24T09:22:37.748Z,13.97
2019-02-24T09:25:06.277Z,12.87
2019-02-24T09:27:34.680Z,12.90
2019-02-24T09:30:03.709Z,12.47
2019-02-24T09:32:32.124Z,12.80
2019-02-24T09:35:00.917Z,12.50
2019-02-24T09:37:29.357Z,11.73
2019-02-24T09:39:57.821Z,11.53
2019-02-24T09:42:26.233Z,12.47
2019-02-24T09:44:54.750Z,12.07
2019-02-24T09:47:23.773Z,12.27
2019-02-24T09:49:52.201Z,11.17
2019-02-24T09:52:21.109Z,11.20
2019-02-24T09:54:50.093Z,11.57
2019-02-24T09:57:19.025Z,11.30
2019-02-24T09:59:47.970Z,11.17
2019-02-24T10:02:16.925Z,11.23
2019-02-24T10:04:45.920Z,11.03
2019-02-24T10:07:14.877Z,11.50
2019-02-24T10:09:43.773Z,11.53
2019-02-24T10:12:12.833Z,12.23
2019-02-24T10:14:41.845Z,11.70
2019-02-24T10:17:10.865Z,11.37
2019-02-24T10:19:39.834Z,11.43
2019-02-24T10:22:08.550Z,11.23
2019-02-24T10:24:37.034Z,11.43
2019-02-24T10:27:05.540Z,12.20
2019-02-24T10:29:34.369Z,10.90
2019-02-24T10:32:02.777Z,10.83
2019-02-24T10:34:32.126Z,10.47
2019-02-24T10:37:01.467Z,9.90
2019-02-24T10:39:30.016Z,10.40
2019-02-24T10:41:59.806Z,10.47
2019-02-24T10:44:28.374Z,10.50
2019-02-24T10:46:56.830Z,10.90
2019-02-24T10:49:25.327Z,10.23
2019-02-24T10:51:53.848Z,10.40
2019-02-24T10:54:22.339Z,11.10
2019-02-24T10:56:50.838Z,10.87
2019-02-24T10:59:19.350Z,11.90
2019-02-24T11:01:47.782Z,10.80
2019-02-24T11:04:16.219Z,10.53
2019-02-24T11:06:44.730Z,10.33
2019-02-24T11:09:13.178Z,11.77
2019-02-24T11:11:41.670Z,10.60
2019-02-24T11:14:10.099Z,10.20
2019-02-24T11:16:38.866Z,9.97
2019-02-24T11:19:07.398Z,9.70
2019-02-24T11:21:35.977Z,10.30
2019-02-24T11:24:04.478Z,10.40
2019-02-24T11:26:33.407Z,10.53
2019-02-24T11:29:01.924Z,10.50
2019-02-24T11:31:38.167Z,10.37
2019-02-24T11:34:01.151Z,10.53
2019-02-24T11:36:29.716Z,10.37
2019-02-24T11:38:58.207Z,10.50
2019-02-24T11:41:27.054Z,10.37
2019-02-24T11:43:55.580Z,11.00
2019-02-24T11:46:24.137Z,11.17
2019-02-24T11:48:52.663Z,10.13
2019-02-24T11:51:21.179Z,10.50
2019-02-24T11:53:49.613Z,10.03
2019-02-24T11:56:19.697Z,9.83
2019-02-24T11:58:48.351Z,9.77
2019-02-24T12:01:16.831Z,11.50
2019-02-24T12:03:45.331Z,10.33
2019-02-24T12:06:13.942Z,10.23
2019-02-24T12:08:42.439Z,10.47
2019-02-24T12:11:10.935Z,9.27
2019-02-24T12:13:39.467Z,9.43
2019-02-24T12:16:07.972Z,9.67
2019-02-24T12:18:36.499Z,9.80
2019-02-24T12:21:05.001Z,9.80
2019-02-24T12:23:33.508Z,9.20
2019-02-24T12:26:02.087Z,8.93
2019-02-24T12:28:30.592Z,8.63
2019-02-24T12:30:59.144Z,8.40
2019-02-24T12:33:27.924Z,9.00
2019-02-24T12:35:56.456Z,8.53
2019-02-24T12:38:24.936Z,7.57
2019-02-24T12:40:53.472Z,6.57
2019-02-24T12:43:22.015Z,5.83
2019-02-24T12:45:50.500Z,7.20
2019-02-24T12:48:19.103Z,6.90
2019-02-24T12:50:48.017Z,7.00
2019-02-24T12:53:16.510Z,5.60
2019-02-24T12:55:45.000Z,4.83
2019-02-24T12:58:13.505Z,4.67
2019-02-24T13:00:42.077Z,4.57
2019-02-24T13:03:10.517Z,4.40
2019-02-24T13:05:39.024Z,4.83
2019-02-24T13:08:07.585Z,4.70
2019-02-24T13:10:36.100Z,4.30
2019-02-24T13:13:04.665Z,5.23
2019-02-24T13:15:33.652Z,4.10
2019-02-24T13:18:02.213Z,4.23
2019-02-24T13:20:30.933Z,4.37
2019-02-24T13:22:59.421Z,4.20
2019-02-24T13:25:28.261Z,4.67
2019-02-24T13:27:56.777Z,4.37
2019-02-24T13:30:25.285Z,3.73
2019-02-24T13:32:53.721Z,4.00
2019-02-24T13:35:22.305Z,4.20
2019-02-24T13:37:50.837Z,4.00
2019-02-24T13:40:19.333Z,4.57
2019-02-24T13:42:47.850Z,4.00
2019-02-24T13:45:16.507Z,3.50
2019-02-24T13:50:20.278Z,3.50
2019-02-24T13:52:48.913Z,3.67
2019-02-24T13:55:17.405Z,3.60
2019-02-24T13:57:45.938Z,3.93
2019-02-24T14:00:15.674Z,4.00
2019-02-24T14:02:44.133Z,3.90
2019-02-24T14:05:12.629Z,3.50
2019-02-24T14:07:41.153Z,3.50
2019-02-24T14:10:10.061Z,3.57
2019-02-24T14:12:38.605Z,3.53
2019-02-24T14:15:07.233Z,3.70
2019-02-24T14:17:36.082Z,3.60
2019-02-24T14:20:04.831Z,3.80
2019-02-24T14:22:33.301Z,4.30
2019-02-24T14:25:01.831Z,3.77
2019-02-24T14:27:30.419Z,3.80
2019-02-24T14:29:58.975Z,3.17
2019-02-24T14:32:33.078Z,3.30
2019-02-24T14:34:57.664Z,4.00
2019-02-24T14:37:26.159Z,3.77
2019-02-24T14:39:54.605Z,3.87
2019-02-24T14:42:23.038Z,3.70
2019-02-24T14:44:51.562Z,3.70
2019-02-24T14:47:20.070Z,4.43
2019-02-24T14:49:48.605Z,4.03
2019-02-24T14:52:17.094Z,4.93
2019-02-24T14:54:45.590Z,4.57
2019-02-24T14:57:14.006Z,4.70
2019-02-24T14:59:42.459Z,4.67
2019-02-24T15:02:11.010Z,4.60
2019-02-24T15:04:39.494Z,4.13
2019-02-24T15:07:08.127Z,4.93
2019-02-24T15:09:36.707Z,4.67
2019-02-24T15:12:05.198Z,4.20
2019-02-24T15:14:33.718Z,3.97
2019-02-24T15:17:02.226Z,3.67
2019-02-24T15:19:30.795Z,3.60
2019-02-24T15:21:59.338Z,3.87
2019-02-24T15:24:27.826Z,3.90
2019-02-24T15:26:56.371Z,3.57
2019-02-24T15:29:24.794Z,3.20
2019-02-24T15:31:53.239Z,3.50
2019-02-24T15:34:21.791Z,3.60
2019-02-24T15:36:50.299Z,3.33
2019-02-24T15:39:19.023Z,3.40
2019-02-24T15:41:47.526Z,3.47
2019-02-24T15:44:16.030Z,3.40
2019-02-24T15:46:44.560Z,4.10
2019-02-24T15:49:13.519Z,3.70
2019-02-24T15:51:42.105Z,4.37
2019-02-24T15:54:10.607Z,6.43
2019-02-24T15:56:39.199Z,5.23
2019-02-24T15:59:07.631Z,5.20
2019-02-24T16:01:36.341Z,5.23
2019-02-24T16:04:04.903Z,4.40
2019-02-24T16:06:37.192Z,4.17
2019-02-24T16:09:03.911Z,5.20
2019-02-24T16:11:32.527Z,5.40
2019-02-24T16:14:01.106Z,4.70
2019-02-24T16:16:29.616Z,4.20
2019-02-24T16:18:58.223Z,4.50
2019-02-24T16:21:26.707Z,5.57
2019-02-24T16:23:55.199Z,4.90
2019-02-24T16:26:23.751Z,5.60
2019-02-24T16:28:52.391Z,23.90
2019-02-24T16:31:20.904Z,6.70
2019-02-24T16:33:49.420Z,20.07
2019-02-24T16:36:37.060Z,27.73
2019-02-24T16:39:05.575Z,18.73
2019-02-24T16:41:34.081Z,10.60
2019-02-24T16:44:02.644Z,8.20
2019-02-24T16:46:31.156Z,8.20
2019-02-24T16:48:59.613Z,7.47
2019-02-24T16:51:28.101Z,8.50
2019-02-24T16:53:56.651Z,8.50
2019-02-24T16:56:25.156Z,7.97
2019-02-24T16:58:53.637Z,8.73
2019-02-24T17:01:22.136Z,9.40
2019-02-24T17:03:50.860Z,9.20
2019-02-24T17:06:19.941Z,8.77
2019-02-24T17:08:52.189Z,9.50
2019-02-24T17:11:19.100Z,9.37
2019-02-24T17:13:47.512Z,14.00
2019-02-24T17:16:16.369Z,10.43
2019-02-24T17:18:44.853Z,9.57
2019-02-24T17:21:13.349Z,10.40
2019-02-24T17:23:49.739Z,10.13
2019-02-24T17:26:12.349Z,11.00
2019-02-24T17:28:40.857Z,11.07
2019-02-24T17:31:09.333Z,15.80
2019-02-24T17:33:37.981Z,18.47
2019-02-24T17:36:07.700Z,17.63
2019-02-24T17:38:36.218Z,8.90
2019-02-24T17:41:04.749Z,7.70
2019-02-24T17:43:33.597Z,7.00
2019-02-24T17:46:02.073Z,7.97
2019-02-24T17:48:30.566Z,8.10
2019-02-24T17:50:59.074Z,6.93
2019-02-24T17:53:27.557Z,5.80
2019-02-24T17:55:56.449Z,5.90
2019-02-24T17:58:24.865Z,5.83
2019-02-24T18:01:01.159Z,6.30
2019-02-24T18:03:38.788Z,6.97
2019-02-24T18:06:00.108Z,12.30
2019-02-24T18:08:28.669Z,9.40
2019-02-24T18:10:57.161Z,10.73
2019-02-24T18:13:25.906Z,11.27
2019-02-24T18:15:54.425Z,13.27
2019-02-24T18:18:22.890Z,16.77
2019-02-24T18:20:51.558Z,16.00
2019-02-24T18:23:19.974Z,17.73
2019-02-24T18:25:48.493Z,16.50
2019-02-24T18:28:17.037Z,23.87
2019-02-24T18:30:45.441Z,22.53
2019-02-24T18:33:14.026Z,21.57
2019-02-24T18:35:42.486Z,17.60
2019-02-24T18:38:11.074Z,23.93
2019-02-24T18:40:39.514Z,20.60
2019-02-24T18:43:08.030Z,20.90
2019-02-24T18:45:36.541Z,18.70
2019-02-24T18:48:05.059Z,17.87
2019-02-24T18:50:33.486Z,17.33
2019-02-24T18:53:01.990Z,17.97
2019-02-24T18:55:30.823Z,17.30
2019-02-24T18:57:59.230Z,16.80
2019-02-24T19:00:27.770Z,16.43
2019-02-24T19:02:56.291Z,18.70
2019-02-24T19:05:24.797Z,17.53
2019-02-24T19:07:53.289Z,18.37
2019-02-24T19:10:21.807Z,19.87
2019-02-24T19:12:50.309Z,19.60
2019-02-24T19:15:18.818Z,20.70
2019-02-24T19:17:47.670Z,21.07
2019-02-24T19:20:16.907Z,22.13
2019-02-24T19:22:45.735Z,23.93
2019-02-24T19:25:14.708Z,26.23
2019-02-24T19:27:43.248Z,20.60
2019-02-24T19:30:12.479Z,22.20
2019-02-24T19:32:40.965Z,17.33
2019-02-24T19:35:10.156Z,16.20
2019-02-24T19:37:38.653Z,14.80
2019-02-24T19:40:08.099Z,14.37
2019-02-24T19:42:36.539Z,16.33
2019-02-24T19:45:07.654Z,14.70
2019-02-24T19:47:36.140Z,15.30
2019-02-24T19:50:04.964Z,15.30
2019-02-24T19:52:33.399Z,15.17
2019-02-24T19:55:01.820Z,15.10
2019-02-24T19:57:30.320Z,17.07
2019-02-24T19:59:58.812Z,19.03
2019-02-24T20:02:27.329Z,19.33
2019-02-24T20:04:55.832Z,19.53
2019-02-24T20:07:24.424Z,21.77
2019-02-24T20:09:52.840Z,20.90
2019-02-24T20:12:21.331Z,21.30
2019-02-24T20:14:49.843Z,21.07
2019-02-24T20:17:18.256Z,21.97
2019-02-24T20:19:46.695Z,20.93
2019-02-24T20:22:15.200Z,21.97
2019-02-24T20:24:43.640Z,23.80
2019-02-24T20:27:13.243Z,22.00
2019-02-24T20:29:41.745Z,19.63
2019-02-24T20:32:10.166Z,18.30
2019-02-24T20:34:38.645Z,16.93
2019-02-24T20:37:07.425Z,16.33
2019-02-24T20:39:37.117Z,13.43
2019-02-24T20:42:05.606Z,13.00
2019-02-24T20:44:34.122Z,10.80
2019-02-24T20:47:02.734Z,10.23
2019-02-24T20:49:31.265Z,10.17
2019-02-24T20:52:00.127Z,10.23
2019-02-24T20:54:28.642Z,11.67
2019-02-24T20:56:57.155Z,11.00
2019-02-24T20:59:25.582Z,10.90
2019-02-24T21:01:54.074Z,8.97
2019-02-24T21:04:22.498Z,9.47
2019-02-24T21:06:50.926Z,11.20
2019-02-24T21:09:19.357Z,12.57
2019-02-24T21:11:47.850Z,13.23
2019-02-24T21:14:16.454Z,12.53
2019-02-24T21:16:44.938Z,15.40
2019-02-24T21:19:13.459Z,14.97
2019-02-24T21:21:41.972Z,14.87
2019-02-24T21:24:10.414Z,16.23
2019-02-24T21:26:38.918Z,15.87
2019-02-24T21:29:07.354Z,16.20
2019-02-24T21:31:36.150Z,17.10
2019-02-24T21:34:04.715Z,14.23
2019-02-24T21:36:33.459Z,14.80
2019-02-24T21:39:01.975Z,15.70
2019-02-24T21:41:30.666Z,18.30
2019-02-24T21:43:59.086Z,17.90
2019-02-24T21:46:27.518Z,16.33
2019-02-24T21:48:56.175Z,15.67
2019-02-24T21:51:25.022Z,15.47
2019-02-24T21:53:53.576Z,15.40
2019-02-24T21:56:22.094Z,13.97
2019-02-24T21:58:50.509Z,13.97
2019-02-24T22:01:18.975Z,13.17
2019-02-24T22:03:47.810Z,11.67
2019-02-24T22:06:16.322Z,12.40
2019-02-24T22:08:44.819Z,11.87
2019-02-24T22:11:13.248Z,11.90
2019-02-24T22:13:41.747Z,11.90
2019-02-24T22:16:10.171Z,11.50
2019-02-24T22:18:38.663Z,10.70
2019-02-24T22:21:07.159Z,11.37
2019-02-24T22:23:35.675Z,11.63
2019-02-24T22:26:04.183Z,12.10
2019-02-24T22:28:32.700Z,12.60
2019-02-24T22:31:01.536Z,11.87
2019-02-24T22:33:30.015Z,12.20
2019-02-24T22:35:58.431Z,11.70
2019-02-24T22:38:26.920Z,11.97
2019-02-24T22:40:55.367Z,11.40
2019-02-24T22:43:24.175Z,12.07
2019-02-24T22:45:52.675Z,12.10
2019-02-24T22:48:21.099Z,12.60
2019-02-24T22:50:50.028Z,11.90
2019-02-24T22:53:18.472Z,11.60
2019-02-24T22:55:46.983Z,11.67
2019-02-24T22:58:15.723Z,12.10
2019-02-24T23:01:00.142Z,11.13
2019-02-24T23:03:29.999Z,11.63
2019-02-24T23:05:58.484Z,13.87
2019-02-24T23:08:27.435Z,10.77
2019-02-24T23:10:55.919Z,9.33
2019-02-24T23:13:24.417Z,9.23
2019-02-24T23:15:52.899Z,9.23
2019-02-24T23:18:21.411Z,9.43
2019-02-24T23:20:50.240Z,10.10
2019-02-24T23:23:18.702Z,9.23
2019-02-24T23:25:47.113Z,9.63
2019-02-24T23:28:15.559Z,9.73
2019-02-24T23:30:44.060Z,9.50
2019-02-24T23:33:12.660Z,9.50
2019-02-24T23:35:41.132Z,10.13
2019-02-24T23:38:09.649Z,11.07
2019-02-24T23:40:38.120Z,10.53
2019-02-24T23:43:06.613Z,11.33
2019-02-24T23:45:35.104Z,10.93
2019-02-24T23:48:03.616Z,10.27
2019-02-24T23:50:32.039Z,10.17
2019-02-24T23:53:00.452Z,10.53
2019-02-24T23:55:29.264Z,10.20
2019-02-24T23:57:57.761Z,10.03
